Time;durP1;ratioP1;P1;durP2;ratioP2;P2;SDS_P1;SDS_P2;PMS_P1;PMS_P2;Temp;Humidity;BMP_temperature;BMP_pressure;BME280_temperature;BME280_humidity;BME280_pressure;Samples;Min_cycle;Max_cycle;Signal;HPM_P1;HPM_P2
2024/03/07 00:00:14;;;;;;;33.03;22.37;;;;;;;6.49;100.00;153028.47;5015493;28;20514;-85
2024/03/07 00:02:41;;;;;;;31.30;20.47;;;;;;;6.45;100.00;153016.88;5020215;28;20507;-85
2024/03/07 00:05:08;;;;;;;28.80;19.80;;;;;;;6.42;100.00;153009.13;5019158;28;20425;-85
2024/03/07 00:07:34;;;;;;;30.67;20.50;;;;;;;6.37;100.00;152996.22;5017519;28;20457;-85
2024/03/07 00:10:02;;;;;;;32.60;22.23;;;;;;;6.35;100.00;152991.06;5015431;28;20543;-84
2024/03/07 00:12:29;;;;;;;32.57;22.83;;;;;;;6.25;100.00;152965.28;5021673;28;20517;-84
2024/03/07 00:14:57;;;;;;;29.07;21.03;;;;;;;6.26;100.00;152969.13;5018165;28;20526;-84
2024/03/07 00:17:24;;;;;;;32.73;21.93;;;;;;;6.26;100.00;152967.81;5019729;28;20461;-84
2024/03/07 00:19:51;;;;;;;32.47;20.97;;;;;;;6.22;100.00;152957.53;5026325;28;20455;-84
2024/03/07 00:22:17;;;;;;;29.47;20.43;;;;;;;6.21;100.00;152956.22;5015588;28;20448;-84
2024/03/07 00:24:47;;;;;;;36.17;23.10;;;;;;;6.19;100.00;152951.06;5016720;28;20467;-84
2024/03/07 00:27:14;;;;;;;31.57;21.07;;;;;;;6.16;100.00;152943.31;5018096;28;20856;-83
2024/03/07 00:29:41;;;;;;;36.70;23.57;;;;;;;6.11;100.00;152930.44;5001805;28;20433;-83
2024/03/07 00:32:09;;;;;;;36.00;22.40;;;;;;;6.05;100.00;152914.94;5019724;28;21008;-84
2024/03/07 00:34:36;;;;;;;33.00;22.10;;;;;;;5.97;100.00;152895.59;5003257;28;20436;-83
2024/03/07 00:37:03;;;;;;;36.00;22.40;;;;;;;5.98;100.00;152898.16;5014767;28;20441;-83
2024/03/07 00:39:30;;;;;;;41.03;24.00;;;;;;;5.97;100.00;152895.59;5000850;28;20479;-84
2024/03/07 00:41:56;;;;;;;34.33;22.77;;;;;;;5.90;100.00;152877.56;5016686;28;20929;-83
2024/03/07 00:44:23;;;;;;;37.17;22.90;;;;;;;5.89;100.00;152874.97;5020919;28;20688;-84
2024/03/07 00:46:49;;;;;;;36.20;23.17;;;;;;;5.89;100.00;152874.97;5017251;28;20444;-84
2024/03/07 00:49:17;;;;;;;33.97;22.77;;;;;;;5.84;100.00;152860.72;5015753;28;20531;-84
2024/03/07 00:51:44;;;;;;;33.40;23.80;;;;;;;5.83;100.00;152859.41;5027214;28;20497;-83
2024/03/07 00:54:12;;;;;;;35.27;22.63;;;;;;;5.77;100.00;152843.94;5022328;28;20864;-84
2024/03/07 00:56:39;;;;;;;35.13;22.53;;;;;;;5.72;100.00;152831.03;5019380;28;20455;-83
2024/03/07 00:59:06;;;;;;;31.70;22.37;;;;;;;5.71;100.00;152828.47;5023313;28;20828;-83
2024/03/07 01:01:33;;;;;;;34.37;21.77;;;;;;;5.70;100.00;152825.88;5026670;28;20957;-84
2024/03/07 01:04:00;;;;;;;32.80;23.83;;;;;;;5.60;100.00;152798.81;5022949;28;20494;-83
2024/03/07 01:06:28;;;;;;;35.23;22.13;;;;;;;5.58;100.00;152794.97;5022456;28;20490;-83
2024/03/07 01:08:55;;;;;;;33.73;23.43;;;;;;;5.56;100.00;152789.75;5024524;28;20866;-83
2024/03/07 01:11:21;;;;;;;31.40;23.97;;;;;;;5.49;100.00;152771.72;5005075;28;20543;-83
2024/03/07 01:13:48;;;;;;;36.83;23.53;;;;;;;5.45;100.00;152762.69;5022274;28;20858;-84
2024/03/07 01:16:14;;;;;;;36.23;22.40;;;;;;;5.43;100.00;152756.25;5023112;28;20478;-83
2024/03/07 01:18:41;;;;;;;34.43;22.37;;;;;;;5.42;100.00;152753.69;5016232;28;20444;-84
2024/03/07 01:21:08;;;;;;;38.80;23.60;;;;;;;5.37;100.00;152740.81;5018383;28;20495;-83
2024/03/07 01:23:36;;;;;;;31.57;21.80;;;;;;;5.33;100.00;152730.47;5019148;28;20479;-83
2024/03/07 01:26:03;;;;;;;36.00;20.57;;;;;;;5.33;100.00;152730.47;5022451;28;20456;-84
2024/03/07 01:28:30;;;;;;;34.27;21.47;;;;;;;5.29;100.00;152721.47;5013401;28;20965;-83
2024/03/07 01:30:56;;;;;;;33.77;22.23;;;;;;;5.27;100.00;152715.03;5017283;28;20447;-83
2024/03/07 01:33:23;;;;;;;36.60;21.20;;;;;;;5.21;100.00;152699.56;5017119;28;20991;-83
2024/03/07 01:35:50;;;;;;;35.77;22.77;;;;;;;5.22;100.00;152702.09;5000672;28;20479;-83
2024/03/07 01:38:17;;;;;;;35.70;22.93;;;;;;;5.21;100.00;152699.56;5020665;28;20456;-83
2024/03/07 01:40:45;;;;;;;34.67;23.03;;;;;;;5.19;100.00;152694.41;5015956;28;20470;-83
2024/03/07 01:43:11;;;;;;;38.30;23.30;;;;;;;5.15;100.00;152685.38;5006016;28;20453;-82
2024/03/07 01:45:38;;;;;;;30.23;22.10;;;;;;;5.14;100.00;152681.47;5018783;28;20801;-83
2024/03/07 01:48:06;;;;;;;36.50;22.53;;;;;;;5.12;100.00;152676.31;5012971;28;20452;-83
2024/03/07 01:50:32;;;;;;;36.00;22.73;;;;;;;5.09;100.00;152669.88;4998095;28;20527;-82
2024/03/07 01:53:00;;;;;;;34.33;22.90;;;;;;;5.09;100.00;152668.59;5019476;28;20543;-84
2024/03/07 01:55:27;;;;;;;32.37;21.40;;;;;;;5.07;100.00;152664.75;5020123;28;20869;-83
2024/03/07 01:57:57;;;;;;;37.23;23.47;;;;;;;5.09;100.00;152668.59;5007260;28;20451;-83
2024/03/07 02:00:24;;;;;;;32.37;21.83;;;;;;;5.07;100.00;152663.44;5019415;28;20432;-83
2024/03/07 02:02:50;;;;;;;29.30;21.30;;;;;;;5.07;100.00;152663.44;5016709;28;20466;-83
2024/03/07 02:05:17;;;;;;;31.37;21.17;;;;;;;5.04;100.00;152657.00;5019331;28;20479;-83
2024/03/07 02:07:44;;;;;;;37.50;22.50;;;;;;;5.04;100.00;152655.69;5019052;28;20506;-83
2024/03/07 02:10:10;;;;;;;29.67;20.50;;;;;;;5.02;100.00;152651.84;5020894;28;20491;-83
2024/03/07 02:12:37;;;;;;;33.07;22.60;;;;;;;5.02;100.00;152650.56;5021904;28;20523;-83
2024/03/07 02:15:05;;;;;;;36.33;23.77;;;;;;;5.00;100.00;152645.41;5006929;28;20537;-84
2024/03/07 02:17:32;;;;;;;32.60;20.97;;;;;;;4.98;100.00;152640.28;5023549;28;20546;-83
2024/03/07 02:19:59;;;;;;;36.70;23.70;;;;;;;4.96;100.00;152635.06;5024951;28;20546;-83
2024/03/07 02:22:27;;;;;;;35.90;22.43;;;;;;;4.89;100.00;152619.66;5001227;28;20468;-83
2024/03/07 02:24:54;;;;;;;33.23;22.13;;;;;;;4.84;100.00;152606.72;5022566;28;20518;-83
2024/03/07 02:27:20;;;;;;;33.67;21.97;;;;;;;4.79;100.00;152592.59;5018624;28;20440;-83
2024/03/07 02:29:47;;;;;;;32.27;22.17;;;;;;;4.75;100.00;152582.25;4999664;28;20456;-83
2024/03/07 02:32:14;;;;;;;32.70;22.17;;;;;;;4.73;100.00;152577.13;5017707;28;20461;-83
2024/03/07 02:34:40;;;;;;;28.20;19.10;;;;;;;4.67;100.00;152562.94;5040973;28;20435;-84
2024/03/07 02:37:09;;;;;;;28.87;19.97;;;;;;;4.63;100.00;152552.59;5025555;28;20436;-84
2024/03/07 02:39:36;;;;;;;34.30;22.00;;;;;;;4.57;100.00;152537.19;5020274;28;20503;-84
2024/03/07 02:42:03;;;;;;;37.40;23.67;;;;;;;4.53;100.00;152526.84;5022689;28;20444;-84
2024/03/07 02:44:31;;;;;;;26.00;17.57;;;;;;;4.53;100.00;152526.84;5024865;28;20589;-84
2024/03/07 02:46:58;;;;;;;28.23;19.57;;;;;;;4.53;100.00;152526.84;5015075;28;20445;-83
2024/03/07 02:49:24;;;;;;;29.53;20.13;;;;;;;4.62;100.00;152550.06;5018322;28;20464;-83
2024/03/07 02:51:51;;;;;;;32.00;21.70;;;;;;;4.53;100.00;152526.84;5023528;28;20440;-84
2024/03/07 02:54:17;;;;;;;35.87;23.63;;;;;;;4.48;100.00;152512.66;5024096;28;20833;-83
2024/03/07 02:56:46;;;;;;;34.77;24.17;;;;;;;4.42;100.00;152497.25;5016713;28;20467;-83
2024/03/07 02:59:13;;;;;;;34.00;20.50;;;;;;;4.38;100.00;152486.91;5022890;28;20447;-84
2024/03/07 03:01:39;;;;;;;35.73;22.87;;;;;;;4.36;100.00;152483.06;5019168;28;20432;-84
2024/03/07 03:04:06;;;;;;;34.47;21.30;;;;;;;4.32;100.00;152474.03;5012424;28;20465;-84
2024/03/07 03:06:32;;;;;;;37.47;24.07;;;;;;;4.30;100.00;152467.59;5017717;28;20455;-83
2024/03/07 03:08:59;;;;;;;36.57;22.53;;;;;;;4.29;100.00;152466.31;5023151;28;20463;-83
2024/03/07 03:11:27;;;;;;;37.27;23.53;;;;;;;4.29;100.00;152465.00;5021672;28;20440;-84
2024/03/07 03:13:55;;;;;;;33.93;22.03;;;;;;;4.23;100.00;152449.59;5020961;28;20553;-84
2024/03/07 03:16:22;;;;;;;36.60;23.30;;;;;;;4.18;100.00;152436.72;5020408;28;20460;-84
2024/03/07 03:18:49;;;;;;;37.17;23.30;;;;;;;4.18;100.00;152437.97;5015258;28;20448;-84
2024/03/07 03:21:16;;;;;;;31.80;22.00;;;;;;;4.16;100.00;152432.81;5026082;28;20447;-84
2024/03/07 03:23:43;;;;;;;33.33;21.77;;;;;;;4.15;100.00;152428.97;5018827;28;21047;-84
2024/03/07 03:26:10;;;;;;;37.27;22.30;;;;;;;4.12;100.00;152422.53;5024007;28;20443;-84
2024/03/07 03:28:36;;;;;;;42.80;23.33;;;;;;;4.08;100.00;152410.91;5021532;28;20471;-84
2024/03/07 03:31:05;;;;;;;31.10;22.37;;;;;;;4.07;100.00;152408.38;5000059;28;20551;-84
2024/03/07 03:33:32;;;;;;;36.60;21.73;;;;;;;4.04;100.00;152400.63;5017946;28;20513;-85
2024/03/07 03:35:59;;;;;;;40.77;24.27;;;;;;;4.01;100.00;152392.91;5015413;28;20452;-84
2024/03/07 03:38:25;;;;;;;39.07;21.57;;;;;;;3.95;100.00;152377.44;5013964;28;20837;-84
2024/03/07 03:40:52;;;;;;;35.70;23.50;;;;;;;3.91;100.00;152367.16;5021971;28;20451;-84
2024/03/07 03:43:19;;;;;;;38.93;25.33;;;;;;;3.88;100.00;152360.72;5013073;28;20456;-84
2024/03/07 03:45:47;;;;;;;41.80;26.40;;;;;;;3.86;100.00;152355.56;5017329;28;20474;-84
2024/03/07 03:48:15;;;;;;;41.97;23.40;;;;;;;3.85;100.00;152351.69;5009739;28;20459;-84
2024/03/07 03:50:41;;;;;;;33.30;22.87;;;;;;;3.83;100.00;152346.56;5015706;28;21046;-85
2024/03/07 03:53:08;;;;;;;33.40;22.33;;;;;;;3.80;100.00;152340.13;5022159;28;20977;-84
2024/03/07 03:55:36;;;;;;;35.17;22.83;;;;;;;3.77;100.00;152331.09;5017582;28;20436;-84
2024/03/07 03:58:05;;;;;;;35.50;22.17;;;;;;;3.74;100.00;152324.66;5013696;28;20467;-84
2024/03/07 04:00:32;;;;;;;36.30;23.17;;;;;;;3.73;100.00;152320.81;5017539;28;20448;-84
2024/03/07 04:02:58;;;;;;;35.77;24.00;;;;;;;3.71;100.00;152315.69;5016095;28;20452;-84
2024/03/07 04:05:26;;;;;;;35.77;24.10;;;;;;;3.67;100.00;152307.94;5021745;28;20470;-84
2024/03/07 04:07:54;;;;;;;35.87;23.20;;;;;;;3.61;100.00;152292.47;5024563;28;20510;-84
2024/03/07 04:10:21;;;;;;;36.53;23.00;;;;;;;3.61;100.00;152291.19;5017181;28;20951;-83
2024/03/07 04:12:47;;;;;;;37.07;24.47;;;;;;;3.58;100.00;152283.47;5023873;28;21151;-84
2024/03/07 04:15:16;;;;;;;35.33;23.53;;;;;;;3.54;100.00;152274.47;5021405;28;20974;-83
2024/03/07 04:17:43;;;;;;;37.90;22.50;;;;;;;3.54;100.00;152274.47;5020758;28;21350;-83
2024/03/07 04:20:11;;;;;;;39.37;22.60;;;;;;;3.52;100.00;152269.28;5014302;28;20448;-84
2024/03/07 04:22:39;;;;;;;38.10;24.30;;;;;;;3.53;100.00;152270.59;5016355;28;20455;-84
2024/03/07 04:25:07;;;;;;;37.53;23.50;;;;;;;3.47;100.00;152256.44;5024309;28;20575;-83
2024/03/07 04:27:36;;;;;;;35.97;22.67;;;;;;;3.42;100.00;152243.56;5012657;28;20479;-84
2024/03/07 04:30:04;;;;;;;35.80;22.20;;;;;;;3.39;100.00;152235.81;5023862;28;20443;-83
2024/03/07 04:32:31;;;;;;;33.30;22.07;;;;;;;3.34;100.00;152222.97;5023109;28;20566;-84
2024/03/07 04:34:58;;;;;;;34.43;21.97;;;;;;;3.36;100.00;152228.09;5020880;28;20443;-84
2024/03/07 04:37:24;;;;;;;38.60;22.63;;;;;;;3.33;100.00;152220.41;5016972;28;20836;-83
2024/03/07 04:39:55;;;;;;;30.20;20.17;;;;;;;3.31;100.00;152215.22;5011919;28;20998;-83
2024/03/07 04:42:22;;;;;;;35.60;21.00;;;;;;;3.32;100.00;152217.81;5022399;28;20463;-83
2024/03/07 04:44:48;;;;;;;33.67;20.87;;;;;;;3.28;100.00;152207.56;5018517;28;20468;-84
2024/03/07 04:47:15;;;;;;;35.33;24.20;;;;;;;3.24;100.00;152197.22;5004159;28;20460;-83
2024/03/07 04:49:43;;;;;;;33.73;21.30;;;;;;;3.22;100.00;152192.09;5016375;28;20461;-83
2024/03/07 04:52:09;;;;;;;33.53;20.47;;;;;;;3.20;100.00;152186.97;5015922;28;20437;-83
2024/03/07 04:54:36;;;;;;;33.37;21.20;;;;;;;3.15;100.00;152172.81;5010322;28;20850;-83
2024/03/07 04:57:05;;;;;;;31.43;19.97;;;;;;;3.09;100.00;152158.66;5017356;28;20448;-83
2024/03/07 04:59:32;;;;;;;31.77;20.17;;;;;;;3.05;100.00;152149.63;5016133;28;20451;-82
2024/03/07 05:01:58;;;;;;;33.43;18.90;;;;;;;3.01;100.00;152139.34;5017220;28;20517;-84
2024/03/07 05:04:25;;;;;;;33.10;20.03;;;;;;;2.99;100.00;152134.16;5016813;28;20503;-83
2024/03/07 05:06:52;;;;;;;34.10;19.57;;;;;;;2.96;100.00;152126.50;5016550;28;20947;-83
2024/03/07 05:12:21;;;;;;;28.83;17.37;;;;;;;2.90;100.00;152109.75;5022027;28;20463;-82
2024/03/07 05:14:49;;;;;;;29.83;16.97;;;;;;;2.88;100.00;152104.59;5020583;28;20480;-81
2024/03/07 05:17:15;;;;;;;29.00;17.47;;;;;;;2.85;100.00;152098.19;5020627;28;20455;-82
2024/03/07 05:19:42;;;;;;;27.40;16.70;;;;;;;2.83;100.00;152093.00;5020884;28;20619;-82
2024/03/07 05:22:13;;;;;;;29.73;17.77;;;;;;;2.84;100.00;152094.28;5022568;28;20455;-82
2024/03/07 05:24:41;;;;;;;26.33;17.00;;;;;;;2.81;100.00;152087.84;5018341;28;20471;-82
2024/03/07 05:27:11;;;;;;;23.93;16.00;;;;;;;2.78;100.00;152078.88;5021289;28;20571;-81
2024/03/07 05:29:42;;;;;;;26.20;16.13;;;;;;;2.73;100.00;152067.28;5019232;28;20448;-81
2024/03/07 05:32:22;;;;;;;27.03;17.10;;;;;;;2.71;100.00;152060.84;5019817;28;20459;-82
2024/03/07 05:34:49;;;;;;;25.07;16.07;;;;;;;2.71;100.00;152060.84;5019252;28;21179;-83
2024/03/07 05:37:20;;;;;;;27.00;17.30;;;;;;;2.69;100.00;152055.72;5018067;28;20452;-83
2024/03/07 05:39:46;;;;;;;26.93;17.53;;;;;;;2.66;100.00;152048.00;5012408;28;20464;-81
2024/03/07 05:42:16;;;;;;;29.43;18.40;;;;;;;2.64;100.00;152044.16;5004167;28;20461;-83
2024/03/07 05:44:44;;;;;;;27.50;16.80;;;;;;;2.65;100.00;152045.44;5025995;28;20522;-81
2024/03/07 05:47:14;;;;;;;27.90;17.33;;;;;;;2.64;100.00;152042.84;5021357;28;20846;-81
2024/03/07 05:49:40;;;;;;;27.10;17.47;;;;;;;2.62;100.00;152038.97;5027960;28;20670;-81
2024/03/07 05:52:07;;;;;;;24.60;16.27;;;;;;;2.61;100.00;152035.13;5018547;28;20511;-81
2024/03/07 05:54:37;;;;;;;26.00;15.97;;;;;;;2.59;100.00;152031.28;5019186;28;20463;-82
2024/03/07 05:57:07;;;;;;;31.27;17.40;;;;;;;2.56;100.00;152022.28;5020412;28;20460;-80
2024/03/07 05:59:34;;;;;;;31.93;17.67;;;;;;;2.55;100.00;152019.69;5021101;28;20476;-80
2024/03/07 06:02:02;;;;;;;29.17;17.17;;;;;;;2.54;100.00;152017.16;5021193;28;20468;-82
2024/03/07 06:04:29;;;;;;;29.60;19.17;;;;;;;2.51;100.00;152010.72;5024182;28;20455;-83
2024/03/07 06:06:56;;;;;;;26.33;17.40;;;;;;;2.50;100.00;152006.84;5021595;28;20444;-84
2024/03/07 06:09:22;;;;;;;27.80;17.27;;;;;;;2.51;100.00;152009.41;5024494;28;20451;-84
2024/03/07 06:11:49;;;;;;;32.03;21.47;;;;;;;2.52;100.00;152011.97;5026307;28;21231;-82
2024/03/07 06:14:17;;;;;;;30.60;19.77;;;;;;;2.51;100.00;152009.41;5021916;28;21379;-82
2024/03/07 06:16:43;;;;;;;27.67;17.67;;;;;;;2.52;100.00;152011.97;5022147;28;20452;-83
2024/03/07 06:19:11;;;;;;;33.40;20.27;;;;;;;2.52;100.00;152013.25;5022886;28;20447;-82
2024/03/07 06:21:40;;;;;;;30.17;19.10;;;;;;;2.53;100.00;152015.84;5002841;28;20495;-82
2024/03/07 06:24:08;;;;;;;34.10;20.80;;;;;;;2.56;100.00;152022.28;5020036;28;20821;-81
2024/03/07 06:26:47;;;;;;;33.30;20.87;;;;;;;2.58;100.00;152027.41;5024696;28;20476;-81
2024/03/07 06:29:18;;;;;;;33.10;18.60;;;;;;;2.64;100.00;152042.84;5022715;28;20567;-81
2024/03/07 06:31:46;;;;;;;30.40;19.93;;;;;;;2.64;100.00;152044.16;5025674;28;20452;-82
2024/03/07 06:37:27;;;;;;;33.77;19.10;;;;;;;2.71;100.00;152062.16;5030517;28;20618;-81
2024/03/07 06:39:54;;;;;;;30.93;19.30;;;;;;;2.70;100.00;152059.56;4990432;28;20571;-81
2024/03/07 06:42:21;;;;;;;33.07;21.23;;;;;;;2.72;100.00;152063.44;5021918;28;21031;-81
2024/03/07 06:44:48;;;;;;;32.10;20.50;;;;;;;2.74;100.00;152068.56;5002497;28;20474;-79
2024/03/07 06:47:14;;;;;;;29.87;19.77;;;;;;;2.73;100.00;152067.28;5025509;28;20472;-80
2024/03/07 06:49:44;;;;;;;23.73;16.93;;;;;;;2.73;100.00;152065.97;4983470;28;20499;-80
2024/03/07 06:52:12;;;;;;;30.77;20.23;;;;;;;2.72;100.00;152063.44;5023341;28;20456;-80
2024/03/07 06:54:39;;;;;;;30.87;18.80;;;;;;;2.68;100.00;152054.41;5025581;28;20990;-80
2024/03/07 06:57:05;;;;;;;30.33;20.37;;;;;;;2.67;100.00;152050.56;5024098;28;21022;-81
2024/03/07 06:59:32;;;;;;;33.43;20.57;;;;;;;2.63;100.00;152041.56;5024369;28;20463;-80
2024/03/07 07:01:59;;;;;;;32.67;18.20;;;;;;;2.60;100.00;152033.84;5010280;28;20455;-80
2024/03/07 07:04:31;;;;;;;29.70;18.60;;;;;;;2.64;100.00;152042.84;5024693;28;20474;-80
2024/03/07 07:07:00;;;;;;;31.70;19.90;;;;;;;2.66;100.00;152048.00;5003109;28;20988;-80
2024/03/07 07:09:27;;;;;;;30.77;18.53;;;;;;;2.66;100.00;152048.00;5033670;28;20481;-79
2024/03/07 07:11:54;;;;;;;32.03;18.10;;;;;;;2.65;100.00;152045.44;5022786;28;20519;-80
2024/03/07 07:14:20;;;;;;;32.30;19.03;;;;;;;2.67;100.00;152050.56;5026486;28;20455;-79
2024/03/07 07:16:50;;;;;;;25.63;16.33;;;;;;;2.72;100.00;152063.44;5025842;28;20805;-78
2024/03/07 07:19:16;;;;;;;27.23;18.77;;;;;;;2.76;100.00;152073.72;5023018;28;20491;-81
2024/03/07 07:21:43;;;;;;;32.20;19.70;;;;;;;2.84;100.00;152094.28;5021159;28;20460;-81
2024/03/07 07:24:12;;;;;;;29.70;17.97;;;;;;;2.94;100.00;152120.00;5019997;28;20826;-82
2024/03/07 07:26:39;;;;;;;29.00;19.70;;;;;;;3.04;100.00;152145.78;5025563;28;20487;-81
2024/03/07 07:29:06;;;;;;;27.00;17.90;;;;;;;3.07;100.00;152154.75;5023228;28;20479;-82
2024/03/07 07:31:33;;;;;;;29.90;17.87;;;;;;;3.15;100.00;152172.81;5026792;28;20883;-82
2024/03/07 07:33:59;;;;;;;28.97;18.50;;;;;;;3.20;100.00;152186.97;5018947;28;20873;-82
2024/03/07 07:36:26;;;;;;;27.97;20.40;;;;;;;3.34;100.00;152222.97;5019165;28;20498;-82
2024/03/07 07:38:52;;;;;;;25.90;17.20;;;;;;;3.40;100.00;152238.41;5023956;28;20843;-82
2024/03/07 07:41:21;;;;;;;29.00;18.30;;;;;;;3.36;100.00;152228.09;5022990;28;20533;-82
2024/03/07 07:43:47;;;;;;;23.80;16.67;;;;;;;3.33;100.00;152220.41;5023480;28;20451;-82
2024/03/07 07:46:15;;;;;;;26.67;17.63;;;;;;;3.35;100.00;152225.56;5024118;28;20469;-81
2024/03/07 07:48:42;;;;;;;28.23;16.77;;;;;;;3.51;100.00;152265.44;5014610;28;20468;-82
2024/03/07 07:51:09;;;;;;;29.20;20.20;;;;;;;3.86;100.00;152354.28;5025655;28;20466;-82
2024/03/07 07:53:35;;;;;;;27.90;19.60;;;;;;;4.14;100.00;152427.69;5024822;28;20547;-83
2024/03/07 07:56:02;;;;;;;28.57;19.30;;;;;;;4.24;98.62;152453.44;5020408;28;20480;-83
2024/03/07 07:58:30;;;;;;;26.00;18.97;;;;;;;4.32;97.39;152474.03;5023384;28;20825;-83
2024/03/07 08:00:57;;;;;;;28.63;19.73;;;;;;;4.37;96.06;152485.63;5033265;28;20452;-83
2024/03/07 08:03:23;;;;;;;34.43;19.77;;;;;;;4.56;96.76;152534.59;5022168;28;20459;-84
2024/03/07 08:05:50;;;;;;;27.40;17.57;;;;;;;4.62;94.83;152548.75;5022954;28;20475;-83
2024/03/07 08:08:18;;;;;;;27.43;18.23;;;;;;;4.67;95.15;152562.94;5024061;28;20798;-84
2024/03/07 08:10:45;;;;;;;28.57;18.77;;;;;;;4.58;95.86;152539.72;5017354;28;20861;-84
2024/03/07 08:13:13;;;;;;;28.63;19.63;;;;;;;4.69;96.71;152566.78;5023832;28;20458;-84
2024/03/07 08:15:41;;;;;;;30.13;18.53;;;;;;;4.83;96.34;152604.16;5025153;28;20883;-84
2024/03/07 08:18:08;;;;;;;29.53;19.30;;;;;;;4.81;95.33;152599.03;5024754;28;20447;-84
2024/03/07 08:20:35;;;;;;;28.23;18.40;;;;;;;4.57;94.58;152537.19;5024477;28;21997;-84
2024/03/07 08:23:02;;;;;;;26.77;17.10;;;;;;;4.28;95.15;152462.47;5023906;28;20467;-84
2024/03/07 08:25:30;;;;;;;29.30;19.47;;;;;;;4.18;96.96;152437.97;5024375;28;20483;-84
2024/03/07 08:27:57;;;;;;;28.13;19.37;;;;;;;4.17;98.31;152435.41;5023811;28;20879;-84
2024/03/07 08:30:25;;;;;;;28.90;17.63;;;;;;;4.08;98.86;152410.91;5024649;28;20950;-85
2024/03/07 08:32:54;;;;;;;26.70;18.73;;;;;;;4.01;98.88;152394.19;5008572;28;20460;-84
2024/03/07 08:35:20;;;;;;;32.10;18.50;;;;;;;4.01;100.00;152392.91;5026027;28;20861;-84
2024/03/07 08:37:49;;;;;;;27.03;17.90;;;;;;;3.97;99.82;152382.63;5026449;28;20456;-84
2024/03/07 08:40:19;;;;;;;26.50;17.60;;;;;;;3.91;99.70;152367.16;5023128;28;20492;-84
2024/03/07 08:42:47;;;;;;;30.73;18.87;;;;;;;3.97;100.00;152382.63;5025325;28;20542;-85
2024/03/07 08:45:17;;;;;;;26.03;17.60;;;;;;;3.96;99.95;152381.31;5024416;28;20529;-84
2024/03/07 08:47:44;;;;;;;26.70;18.33;;;;;;;3.96;99.39;152380.03;5021667;28;20444;-85
2024/03/07 08:50:14;;;;;;;27.97;17.07;;;;;;;3.86;99.45;152354.28;5015635;28;20833;-84
2024/03/07 08:52:42;;;;;;;25.20;17.20;;;;;;;3.79;99.42;152336.22;5026166;28;20452;-85
2024/03/07 08:55:11;;;;;;;27.70;18.40;;;;;;;3.82;99.56;152343.97;5024584;28;20468;-85
2024/03/07 08:57:38;;;;;;;24.83;16.60;;;;;;;3.87;100.00;152356.81;5006406;28;20546;-84
2024/03/07 09:00:08;;;;;;;28.87;19.03;;;;;;;3.87;100.00;152356.81;5024049;28;20635;-85
2024/03/07 09:02:34;;;;;;;27.57;16.57;;;;;;;3.89;99.92;152363.25;5025500;28;20478;-83
2024/03/07 09:05:01;;;;;;;28.23;16.43;;;;;;;3.90;99.99;152364.56;5015158;28;20471;-84
2024/03/07 09:07:29;;;;;;;26.57;17.93;;;;;;;3.94;100.00;152374.88;5025758;28;20549;-85
2024/03/07 09:09:55;;;;;;;26.90;18.90;;;;;;;3.95;100.00;152377.44;5025129;28;20860;-84
2024/03/07 09:12:22;;;;;;;27.80;18.13;;;;;;;4.06;100.00;152405.78;5024903;28;20491;-84
2024/03/07 09:14:48;;;;;;;28.67;18.23;;;;;;;4.18;100.00;152437.97;5015500;28;20806;-84
2024/03/07 09:17:16;;;;;;;33.00;21.67;;;;;;;4.21;100.00;152444.41;5025058;28;20602;-85
2024/03/07 09:19:42;;;;;;;30.23;18.33;;;;;;;4.27;100.00;152459.88;5025445;28;20941;-87
2024/03/07 09:22:09;;;;;;;26.77;18.40;;;;;;;4.33;99.96;152475.34;5015442;28;20805;-86
2024/03/07 09:24:38;;;;;;;28.07;17.10;;;;;;;4.42;100.00;152498.50;5015116;28;20463;-86
2024/03/07 09:27:05;;;;;;;27.53;17.87;;;;;;;4.45;100.00;152506.22;5039385;28;20883;-86
2024/03/07 09:29:32;;;;;;;31.07;19.60;;;;;;;4.55;100.00;152532.03;5025033;28;20888;-86
2024/03/07 09:31:58;;;;;;;34.00;19.83;;;;;;;4.61;100.00;152547.47;5024240;28;20451;-86
2024/03/07 09:34:25;;;;;;;28.00;19.70;;;;;;;4.69;99.52;152568.06;5007098;28;20474;-87
2024/03/07 09:36:52;;;;;;;25.03;18.43;;;;;;;4.71;99.04;152573.22;5023519;28;20487;-84
2024/03/07 09:39:19;;;;;;;27.60;19.87;;;;;;;4.72;98.89;152575.81;5024175;28;20501;-87
2024/03/07 09:41:47;;;;;;;28.03;18.60;;;;;;;4.74;99.33;152579.66;5023091;28;20452;-84
2024/03/07 09:44:17;;;;;;;30.50;19.40;;;;;;;4.86;99.96;152611.91;5007422;28;21188;-87
2024/03/07 09:46:46;;;;;;;28.53;19.70;;;;;;;5.02;100.00;152651.84;5025124;28;20515;-87
2024/03/07 09:49:13;;;;;;;29.27;19.77;;;;;;;5.11;100.00;152673.78;5023372;28;20457;-85
2024/03/07 09:51:42;;;;;;;28.70;18.33;;;;;;;5.20;99.34;152696.94;5022600;28;20868;-87
2024/03/07 09:54:09;;;;;;;27.23;19.07;;;;;;;5.19;97.22;152694.41;5023949;28;20499;-87
2024/03/07 09:56:37;;;;;;;31.33;19.67;;;;;;;5.16;97.19;152686.66;5024028;28;20482;-86
2024/03/07 09:59:05;;;;;;;29.27;18.80;;;;;;;5.20;97.37;152698.25;5014429;28;20459;-87
2024/03/07 10:01:35;;;;;;;26.00;17.13;;;;;;;5.33;97.40;152730.47;5023838;28;20490;-86
2024/03/07 10:04:09;;;;;;;28.80;17.63;;;;;;;5.38;95.87;152743.34;5023744;28;20448;-86
2024/03/07 10:06:36;;;;;;;26.77;17.27;;;;;;;5.40;95.81;152748.56;5037402;28;20477;-86
2024/03/07 10:09:03;;;;;;;28.30;18.43;;;;;;;5.45;95.19;152762.69;5014490;28;20521;-86
2024/03/07 10:11:30;;;;;;;32.80;18.03;;;;;;;5.54;93.89;152785.91;5023796;28;20452;-86
2024/03/07 10:13:57;;;;;;;28.47;18.80;;;;;;;5.61;95.40;152801.41;5007877;28;20463;-86
2024/03/07 10:16:25;;;;;;;29.47;17.17;;;;;;;5.64;94.90;152810.41;5025984;28;20830;-86
2024/03/07 10:18:52;;;;;;;28.00;18.40;;;;;;;5.58;94.29;152794.97;5029020;28;20444;-86
2024/03/07 10:21:20;;;;;;;28.53;17.93;;;;;;;5.64;93.28;152809.16;5001881;28;20813;-86
2024/03/07 10:23:46;;;;;;;28.67;18.97;;;;;;;5.75;93.54;152838.78;5027127;28;20447;-86
2024/03/07 10:26:13;;;;;;;28.57;19.37;;;;;;;5.77;92.91;152843.94;5028883;28;20487;-86
2024/03/07 10:28:39;;;;;;;29.63;19.67;;;;;;;5.62;91.52;152805.25;5026102;28;20909;-86
2024/03/07 10:31:11;;;;;;;23.70;15.73;;;;;;;5.65;90.87;152811.69;5019582;28;20451;-87
2024/03/07 10:33:40;;;;;;;30.13;20.57;;;;;;;5.40;92.27;152748.56;5027027;28;20443;-86
2024/03/07 10:36:09;;;;;;;27.90;16.70;;;;;;;5.38;94.49;152744.66;5043172;28;20962;-86
2024/03/07 10:38:36;;;;;;;26.13;19.03;;;;;;;5.33;93.93;152730.47;5025307;28;20467;-86
2024/03/07 10:41:04;;;;;;;28.13;18.03;;;;;;;5.38;93.84;152744.66;5027168;28;20514;-86
2024/03/07 10:43:30;;;;;;;26.20;17.60;;;;;;;5.39;92.30;152745.94;5018802;28;20478;-86
2024/03/07 10:45:58;;;;;;;28.13;17.27;;;;;;;5.46;93.52;152765.28;5025580;28;20507;-85
2024/03/07 10:48:30;;;;;;;30.57;18.10;;;;;;;5.51;92.00;152776.88;5027450;28;20941;-85
2024/03/07 10:51:09;;;;;;;23.10;13.77;;;;;;;5.64;89.88;152810.41;5026468;28;20462;-86
2024/03/07 10:53:42;;;;;;;27.77;18.73;;;;;;;5.73;90.46;152832.34;5027147;28;20443;-86
2024/03/07 10:56:24;;;;;;;24.80;17.27;;;;;;;5.83;91.39;152859.41;5036014;28;20451;-86
2024/03/07 10:59:00;;;;;;;24.80;18.03;;;;;;;5.94;92.49;152887.84;5025542;28;20547;-86
2024/03/07 11:01:27;;;;;;;31.57;17.97;;;;;;;5.63;90.51;152807.84;5004024;28;20497;-86
2024/03/07 11:03:57;;;;;;;24.40;17.90;;;;;;;5.57;89.76;152792.38;5027269;28;20459;-86
2024/03/07 11:06:26;;;;;;;28.30;17.27;;;;;;;5.71;90.54;152828.47;5026601;28;20475;-85
2024/03/07 11:08:53;;;;;;;23.43;16.50;;;;;;;5.76;89.25;152841.38;5026108;28;20443;-86
2024/03/07 11:11:20;;;;;;;22.80;16.60;;;;;;;5.90;89.35;152877.56;5028319;28;20521;-86
2024/03/07 11:13:50;;;;;;;24.20;16.17;;;;;;;5.93;90.19;152885.25;5026906;28;20485;-86
2024/03/07 11:16:16;;;;;;;26.53;18.60;;;;;;;6.00;90.29;152902.03;5026549;28;20455;-86
2024/03/07 11:19:19;;;;;;;30.37;17.00;;;;;;;5.78;89.71;152846.53;5027818;28;20451;-86